createdAt,value
2022-10-09T00:00:15.374Z,6.47
2022-10-09T00:03:19.516Z,6.10
2022-10-09T00:06:25.233Z,5.93
2022-10-09T00:09:28.476Z,5.90
2022-10-09T00:12:32.623Z,6.10
2022-10-09T00:15:39.035Z,5.20
2022-10-09T00:18:43.139Z,5.43
2022-10-09T00:21:46.215Z,5.13
2022-10-09T00:24:49.305Z,5.07
2022-10-09T00:27:53.533Z,4.30
2022-10-09T00:30:56.781Z,4.80
2022-10-09T00:33:59.520Z,4.37
2022-10-09T00:37:03.319Z,4.57
2022-10-09T00:40:07.251Z,4.80
2022-10-09T00:43:17.408Z,4.20
2022-10-09T00:46:29.522Z,4.10
2022-10-09T00:49:35.581Z,4.07
2022-10-09T00:52:38.606Z,4.40
2022-10-09T00:55:42.174Z,3.97
2022-10-09T00:58:51.161Z,3.33
2022-10-09T01:01:54.281Z,3.93
2022-10-09T01:04:57.560Z,3.77
2022-10-09T01:08:07.281Z,3.87
2022-10-09T01:11:19.267Z,3.40
2022-10-09T01:14:28.800Z,2.90
2022-10-09T01:17:38.028Z,2.70
2022-10-09T01:20:50.253Z,3.03
2022-10-09T01:24:10.096Z,3.27
2022-10-09T01:27:20.281Z,2.87
2022-10-09T01:30:23.550Z,3.27
2022-10-09T01:33:27.828Z,3.00
2022-10-09T01:36:32.101Z,3.20
2022-10-09T01:39:37.184Z,3.40
2022-10-09T01:42:41.722Z,3.60
2022-10-09T01:45:46.494Z,3.50
2022-10-09T01:48:56.946Z,3.70
2022-10-09T01:52:06.444Z,3.00
2022-10-09T01:55:20.753Z,2.90
2022-10-09T01:58:29.813Z,2.93
2022-10-09T02:01:36.876Z,2.73
2022-10-09T02:04:43.184Z,2.70
2022-10-09T02:07:46.853Z,3.30
2022-10-09T02:10:54.286Z,2.73
2022-10-09T02:13:59.550Z,3.50
2022-10-09T02:17:07.182Z,3.57
2022-10-09T02:20:15.812Z,4.47
2022-10-09T02:23:20.808Z,3.93
2022-10-09T02:26:24.574Z,4.47
2022-10-09T02:29:28.839Z,2.90
2022-10-09T02:32:32.074Z,2.60
2022-10-09T02:35:34.960Z,2.50
2022-10-09T02:38:38.040Z,2.80
2022-10-09T02:41:40.766Z,2.97
2022-10-09T02:44:45.359Z,2.80
2022-10-09T02:47:48.482Z,3.97
2022-10-09T02:50:51.163Z,3.97
2022-10-09T02:53:54.699Z,3.37
2022-10-09T02:56:57.510Z,3.27
2022-10-09T03:00:01.999Z,4.27
2022-10-09T03:03:04.897Z,4.10
2022-10-09T03:06:11.563Z,3.73
2022-10-09T03:09:14.970Z,4.47
2022-10-09T03:12:21.978Z,4.20
2022-10-09T03:15:26.678Z,4.20
2022-10-09T03:18:30.323Z,2.70
2022-10-09T03:21:33.432Z,2.50
2022-10-09T03:24:36.769Z,2.10
2022-10-09T03:27:39.466Z,2.37
2022-10-09T03:30:43.902Z,2.63
2022-10-09T03:33:46.831Z,2.30
2022-10-09T03:36:50.350Z,2.30
2022-10-09T03:39:53.541Z,3.33
2022-10-09T03:42:56.267Z,3.70
2022-10-09T03:46:01.204Z,3.80
2022-10-09T03:49:04.460Z,3.50
2022-10-09T03:52:07.154Z,2.93
2022-10-09T03:55:10.311Z,2.60
2022-10-09T03:58:13.020Z,2.47
2022-10-09T04:01:17.636Z,2.50
2022-10-09T04:04:20.864Z,2.50
2022-10-09T04:07:24.045Z,3.77
2022-10-09T04:10:27.373Z,3.40
2022-10-09T04:13:30.899Z,4.00
2022-10-09T04:16:38.521Z,3.90
2022-10-09T04:19:43.617Z,3.77
2022-10-09T04:22:48.367Z,4.30
2022-10-09T04:25:54.348Z,4.43
2022-10-09T04:28:57.699Z,4.20
2022-10-09T04:32:01.791Z,4.47
2022-10-09T04:35:06.377Z,4.80
2022-10-09T04:38:10.549Z,4.27
2022-10-09T04:41:14.846Z,4.90
2022-10-09T04:44:17.779Z,4.07
2022-10-09T04:47:22.399Z,4.10
2022-10-09T04:50:25.347Z,4.70
2022-10-09T04:53:28.060Z,5.10
2022-10-09T04:56:30.776Z,4.80
2022-10-09T04:59:33.514Z,3.97
2022-10-09T05:02:37.648Z,5.37
2022-10-09T05:05:41.204Z,4.57
2022-10-09T05:08:44.734Z,5.60
2022-10-09T05:11:47.841Z,3.00
2022-10-09T05:14:50.545Z,5.17
2022-10-09T05:17:54.702Z,4.47
2022-10-09T05:20:57.540Z,5.00
2022-10-09T05:24:00.804Z,5.03
2022-10-09T05:27:03.586Z,5.17
2022-10-09T05:30:08.162Z,5.67
2022-10-09T05:33:12.239Z,4.07
2022-10-09T05:36:15.749Z,5.60
2022-10-09T05:39:18.829Z,6.53
2022-10-09T05:42:21.505Z,6.30
2022-10-09T05:45:24.328Z,6.63
2022-10-09T05:48:28.524Z,7.17
2022-10-09T05:51:32.871Z,6.70
2022-10-09T05:54:35.501Z,6.60
2022-10-09T05:57:38.186Z,7.40
2022-10-09T06:00:40.950Z,7.87
2022-10-09T06:03:49.753Z,7.33
2022-10-09T06:06:53.161Z,7.33
2022-10-09T06:09:55.886Z,5.40
2022-10-09T06:12:58.596Z,5.47
2022-10-09T06:16:01.849Z,6.83
2022-10-09T06:19:06.731Z,7.37
2022-10-09T06:22:10.032Z,8.47
2022-10-09T06:25:12.705Z,6.60
2022-10-09T06:28:16.653Z,6.37
2022-10-09T06:31:21.597Z,5.43
2022-10-09T06:34:26.062Z,6.67
2022-10-09T06:37:28.780Z,6.60
2022-10-09T06:40:32.033Z,6.90
2022-10-09T06:43:34.985Z,7.67
2022-10-09T06:46:39.927Z,6.33
2022-10-09T06:49:44.236Z,7.07
2022-10-09T06:52:47.169Z,6.97
2022-10-09T06:55:56.654Z,11.40
2022-10-09T06:59:01.582Z,6.17
2022-10-09T07:02:04.869Z,6.13
2022-10-09T07:05:10.131Z,5.97
2022-10-09T07:08:13.205Z,5.73
2022-10-09T07:11:18.860Z,6.07
2022-10-09T07:14:21.533Z,5.87
2022-10-09T07:17:24.306Z,5.57
2022-10-09T07:20:28.391Z,6.30
2022-10-09T07:23:32.599Z,5.87
2022-10-09T07:26:37.062Z,6.20
2022-10-09T07:29:40.584Z,6.40
2022-10-09T07:32:43.752Z,6.17
2022-10-09T07:35:55.891Z,4.87
2022-10-09T07:39:00.008Z,5.60
2022-10-09T07:42:03.386Z,6.10
2022-10-09T07:45:07.218Z,5.90
2022-10-09T07:48:10.382Z,6.50
2022-10-09T07:51:17.745Z,5.70
2022-10-09T07:54:20.532Z,7.20
2022-10-09T07:57:23.321Z,5.60
2022-10-09T08:00:26.723Z,4.27
2022-10-09T08:03:29.472Z,5.37
2022-10-09T08:06:34.148Z,4.70
2022-10-09T08:09:37.188Z,6.03
2022-10-09T08:12:40.451Z,6.40
2022-10-09T08:15:43.531Z,7.90
2022-10-09T08:18:47.102Z,5.63
2022-10-09T08:21:51.184Z,5.23
2022-10-09T08:24:53.941Z,5.90
2022-10-09T08:27:57.250Z,9.63
2022-10-09T08:31:01.628Z,7.37
2022-10-09T08:34:05.297Z,8.83
2022-10-09T08:37:09.571Z,5.57
2022-10-09T08:40:18.674Z,6.23
2022-10-09T08:43:29.338Z,6.90
2022-10-09T08:46:43.524Z,6.10
2022-10-09T08:49:54.647Z,6.47
2022-10-09T08:53:04.129Z,6.57
2022-10-09T08:56:13.048Z,5.07
2022-10-09T08:59:16.400Z,5.07
2022-10-09T09:02:33.721Z,4.03
2022-10-09T09:05:47.475Z,3.70
2022-10-09T09:08:56.628Z,3.47
2022-10-09T09:12:05.011Z,3.63
2022-10-09T09:15:26.070Z,3.30
2022-10-09T09:18:42.677Z,3.70
2022-10-09T09:21:49.472Z,3.13
2022-10-09T09:24:55.697Z,3.63
2022-10-09T09:28:03.288Z,2.60
2022-10-09T09:31:10.133Z,3.37
2022-10-09T09:34:21.090Z,3.10
2022-10-09T09:37:24.640Z,3.70
2022-10-09T09:40:38.055Z,3.03
2022-10-09T09:43:42.932Z,2.83
2022-10-09T09:46:48.053Z,4.53
2022-10-09T09:49:55.713Z,3.23
2022-10-09T09:53:02.567Z,2.83
2022-10-09T09:56:07.541Z,3.20
2022-10-09T09:59:27.767Z,3.30
2022-10-09T10:02:30.997Z,3.27
2022-10-09T10:05:37.704Z,2.83
2022-10-09T10:08:40.500Z,2.30
2022-10-09T10:11:49.181Z,2.63
2022-10-09T10:14:52.210Z,2.63
2022-10-09T10:18:00.020Z,2.97
2022-10-09T10:21:05.638Z,2.80
2022-10-09T10:24:14.639Z,3.07
2022-10-09T10:27:26.331Z,2.57
2022-10-09T10:30:29.604Z,2.63
2022-10-09T10:33:35.067Z,2.07
2022-10-09T10:36:37.763Z,1.90
2022-10-09T10:39:45.100Z,2.30
2022-10-09T10:43:00.303Z,2.27
2022-10-09T10:46:12.540Z,2.60
2022-10-09T10:49:20.010Z,2.67
2022-10-09T10:52:41.400Z,2.10
2022-10-09T10:55:53.018Z,1.80
2022-10-09T10:59:17.575Z,2.17
2022-10-09T11:03:02.756Z,2.60
2022-10-09T11:06:12.738Z,2.57
2022-10-09T11:09:24.647Z,1.80
2022-10-09T11:12:47.922Z,2.10
2022-10-09T11:16:07.033Z,2.47
2022-10-09T11:19:32.371Z,2.20
2022-10-09T11:22:56.045Z,1.77
2022-10-09T11:26:10.030Z,1.57
2022-10-09T11:29:19.080Z,1.97
2022-10-09T11:32:28.670Z,1.80
2022-10-09T11:35:36.381Z,1.80
2022-10-09T11:38:43.524Z,2.50
2022-10-09T11:41:48.607Z,1.73
2022-10-09T11:45:01.411Z,1.37
2022-10-09T11:48:11.401Z,1.93
2022-10-09T11:51:20.969Z,1.77
2022-10-09T11:54:25.941Z,1.50
2022-10-09T11:57:30.493Z,1.70
2022-10-09T12:00:36.218Z,1.20
2022-10-09T12:03:41.413Z,1.60
2022-10-09T12:06:48.885Z,1.53
2022-10-09T12:10:00.767Z,1.30
2022-10-09T12:13:06.381Z,1.40
2022-10-09T12:16:12.665Z,0.73
2022-10-09T12:19:20.957Z,1.13
2022-10-09T12:22:30.719Z,1.17
2022-10-09T12:25:41.764Z,1.50
2022-10-09T12:28:48.989Z,1.30
2022-10-09T12:31:54.754Z,1.07
2022-10-09T12:34:59.394Z,1.10
2022-10-09T12:38:02.158Z,1.13
2022-10-09T12:41:08.737Z,1.10
2022-10-09T12:44:27.237Z,1.10
2022-10-09T12:47:31.688Z,1.10
2022-10-09T12:50:37.032Z,1.17
2022-10-09T12:53:47.543Z,1.30
2022-10-09T12:56:50.579Z,0.90
2022-10-09T12:59:53.590Z,1.00
2022-10-09T13:02:56.661Z,0.90
2022-10-09T13:06:02.279Z,1.10
2022-10-09T13:09:08.344Z,1.03
2022-10-09T13:12:17.933Z,1.00
2022-10-09T13:15:35.766Z,1.00
2022-10-09T13:18:39.258Z,1.00
2022-10-09T13:21:43.302Z,0.93
2022-10-09T13:24:46.519Z,1.20
2022-10-09T13:27:49.742Z,1.17
2022-10-09T13:30:52.994Z,1.20
2022-10-09T13:33:55.826Z,1.10
2022-10-09T13:37:00.305Z,1.10
2022-10-09T13:40:03.655Z,1.00
2022-10-09T13:43:07.458Z,1.37
2022-10-09T13:46:10.345Z,2.20
2022-10-09T13:49:13.112Z,1.27
2022-10-09T13:52:17.427Z,2.20
2022-10-09T13:55:20.332Z,1.53
2022-10-09T13:58:23.110Z,1.90
2022-10-09T14:01:26.086Z,1.30
2022-10-09T14:04:30.534Z,1.40
2022-10-09T14:07:34.789Z,1.90
2022-10-09T14:10:43.030Z,2.10
2022-10-09T14:13:45.690Z,1.73
2022-10-09T14:16:48.401Z,1.70
2022-10-09T14:19:51.194Z,1.60
2022-10-09T14:22:56.130Z,1.40
2022-10-09T14:26:03.996Z,1.20
2022-10-09T14:29:07.177Z,1.73
2022-10-09T14:32:09.951Z,1.30
2022-10-09T14:35:13.715Z,1.80
2022-10-09T14:38:19.328Z,1.27
2022-10-09T14:41:23.180Z,1.53
2022-10-09T14:44:26.048Z,1.60
2022-10-09T14:47:29.468Z,1.13
2022-10-09T14:50:32.258Z,1.47
2022-10-09T14:53:36.461Z,1.53
2022-10-09T14:56:39.410Z,1.67
2022-10-09T14:59:42.343Z,1.83
2022-10-09T15:02:45.985Z,1.60
2022-10-09T15:05:49.195Z,1.90
2022-10-09T15:09:03.126Z,1.50
2022-10-09T15:12:08.749Z,1.20
2022-10-09T15:15:12.039Z,2.00
2022-10-09T15:18:15.453Z,1.40
2022-10-09T15:21:21.567Z,1.40
2022-10-09T15:24:25.781Z,1.40
2022-10-09T15:27:28.898Z,1.60
2022-10-09T15:30:31.719Z,1.30
2022-10-09T15:33:34.957Z,1.17
2022-10-09T15:36:39.921Z,1.10
2022-10-09T15:39:44.272Z,1.50
2022-10-09T15:42:47.524Z,3.43
2022-10-09T15:45:51.482Z,1.30
2022-10-09T15:48:54.939Z,1.17
2022-10-09T15:51:58.008Z,1.30
2022-10-09T15:55:02.219Z,2.87
2022-10-09T15:58:07.790Z,2.17
2022-10-09T16:01:13.670Z,1.20
2022-10-09T16:04:16.678Z,1.40
2022-10-09T16:07:19.580Z,1.20
2022-10-09T16:10:23.783Z,1.17
2022-10-09T16:13:27.936Z,1.13
2022-10-09T16:16:30.799Z,1.40
2022-10-09T16:19:33.654Z,1.40
2022-10-09T16:22:36.768Z,1.60
2022-10-09T16:25:42.440Z,1.40
2022-10-09T16:28:46.228Z,1.30
2022-10-09T16:31:49.171Z,1.33
2022-10-09T16:34:52.540Z,1.30
2022-10-09T16:37:55.460Z,1.30
2022-10-09T16:41:02.344Z,1.83
2022-10-09T16:44:06.946Z,4.90
2022-10-09T16:47:09.839Z,4.63
2022-10-09T16:50:13.190Z,3.77
2022-10-09T16:53:15.940Z,4.10
2022-10-09T16:56:24.682Z,4.87
2022-10-09T16:59:27.430Z,5.90
2022-10-09T17:02:30.151Z,5.30
2022-10-09T17:05:33.266Z,4.13
2022-10-09T17:08:36.545Z,4.80
2022-10-09T17:11:40.680Z,3.90
2022-10-09T17:14:43.442Z,5.80
2022-10-09T17:17:47.149Z,7.30
2022-10-09T17:20:50.003Z,4.37
2022-10-09T17:23:54.752Z,5.40
2022-10-09T17:26:58.994Z,5.17
2022-10-09T17:30:01.824Z,4.60
2022-10-09T17:33:04.692Z,5.10
2022-10-09T17:36:08.529Z,4.27
2022-10-09T17:39:14.540Z,4.17
2022-10-09T17:42:19.356Z,3.67
2022-10-09T17:45:22.242Z,6.90
2022-10-09T17:48:25.575Z,4.73
2022-10-09T17:51:30.801Z,5.23
2022-10-09T17:54:34.046Z,18.47
2022-10-09T17:57:38.306Z,5.07
2022-10-09T18:00:41.716Z,5.23
2022-10-09T18:03:45.169Z,4.43
2022-10-09T18:06:49.252Z,5.07
2022-10-09T18:09:52.295Z,5.37
2022-10-09T18:12:56.977Z,5.60
2022-10-09T18:15:59.782Z,7.17
2022-10-09T18:19:03.087Z,8.07
2022-10-09T18:22:05.885Z,6.47
2022-10-09T18:25:09.095Z,5.83
2022-10-09T18:28:13.717Z,12.13
2022-10-09T18:31:18.744Z,10.67
2022-10-09T18:34:21.561Z,14.10
2022-10-09T18:37:24.517Z,39.13
2022-10-09T18:40:27.864Z,33.23
2022-10-09T18:43:32.005Z,12.00
2022-10-09T18:46:40.323Z,17.93
2022-10-09T18:49:46.384Z,18.30
2022-10-09T18:52:49.490Z,5.40
2022-10-09T18:55:52.545Z,8.37
2022-10-09T18:58:57.233Z,5.70
2022-10-09T19:02:00.003Z,8.07
2022-10-09T19:05:03.174Z,3.80
2022-10-09T19:08:06.108Z,4.20
2022-10-09T19:11:09.519Z,5.40
2022-10-09T19:14:15.706Z,5.30
2022-10-09T19:17:18.986Z,3.80
2022-10-09T19:20:21.954Z,3.90
2022-10-09T19:23:24.783Z,3.87
2022-10-09T19:26:29.457Z,3.80
2022-10-09T19:29:33.627Z,3.00
2022-10-09T19:32:36.874Z,3.03
2022-10-09T19:35:47.352Z,4.80
2022-10-09T19:38:50.812Z,2.03
2022-10-09T19:41:53.634Z,1.40
2022-10-09T19:44:58.076Z,2.73
2022-10-09T19:48:01.584Z,4.47
2022-10-09T19:51:07.497Z,3.07
2022-10-09T19:54:11.012Z,3.70
2022-10-09T19:57:13.931Z,3.00
2022-10-09T20:00:18.306Z,3.70
2022-10-09T20:03:21.496Z,3.03
2022-10-09T20:06:24.516Z,2.97
2022-10-09T20:09:27.284Z,3.70
2022-10-09T20:12:30.262Z,3.20
2022-10-09T20:15:34.694Z,3.83
2022-10-09T20:18:39.398Z,3.40
2022-10-09T20:21:42.546Z,3.47
2022-10-09T20:24:45.297Z,3.07
2022-10-09T20:27:48.316Z,3.33
2022-10-09T20:30:58.270Z,3.60
2022-10-09T20:34:01.436Z,3.80
2022-10-09T20:37:04.406Z,4.30
2022-10-09T20:40:08.259Z,3.87
2022-10-09T20:43:12.041Z,3.53
2022-10-09T20:46:16.494Z,4.30
2022-10-09T20:49:19.263Z,4.53
2022-10-09T20:52:22.326Z,5.20
2022-10-09T20:55:25.011Z,4.23
2022-10-09T20:58:28.365Z,4.40
2022-10-09T21:01:32.980Z,4.43
2022-10-09T21:04:35.692Z,4.17
2022-10-09T21:07:38.435Z,3.20
2022-10-09T21:10:45.525Z,3.67
2022-10-09T21:13:50.075Z,3.20
2022-10-09T21:16:54.144Z,4.00
2022-10-09T21:19:58.243Z,4.60
2022-10-09T21:23:01.396Z,3.67
2022-10-09T21:26:04.732Z,2.83
2022-10-09T21:29:07.750Z,3.20
2022-10-09T21:32:12.137Z,3.53
2022-10-09T21:35:14.852Z,3.23
2022-10-09T21:38:19.758Z,2.90
2022-10-09T21:41:22.551Z,3.60
2022-10-09T21:44:25.546Z,5.20
2022-10-09T21:47:29.660Z,3.73
2022-10-09T21:50:33.186Z,4.67
2022-10-09T21:53:36.439Z,4.63
2022-10-09T21:56:39.160Z,3.80
2022-10-09T21:59:42.125Z,3.93
2022-10-09T22:02:46.213Z,3.80
2022-10-09T22:05:48.895Z,3.30
2022-10-09T22:08:51.562Z,2.93
2022-10-09T22:11:54.598Z,2.90
2022-10-09T22:14:57.927Z,2.80
2022-10-09T22:18:02.312Z,2.80
2022-10-09T22:21:07.253Z,3.10
2022-10-09T22:24:10.008Z,2.97
2022-10-09T22:27:12.752Z,2.53
2022-10-09T22:30:15.933Z,3.00
2022-10-09T22:33:20.288Z,3.07
2022-10-09T22:36:25.319Z,2.80
2022-10-09T22:39:28.355Z,3.00
2022-10-09T22:42:31.298Z,2.60
2022-10-09T22:45:38.318Z,2.97
2022-10-09T22:48:45.014Z,2.77
2022-10-09T22:51:47.892Z,2.90
2022-10-09T22:54:50.634Z,2.97
2022-10-09T22:57:53.367Z,2.73
2022-10-09T23:00:56.525Z,2.73
2022-10-09T23:04:02.352Z,2.70
2022-10-09T23:07:05.448Z,3.60
2022-10-09T23:10:08.524Z,3.73
2022-10-09T23:13:11.514Z,3.27
2022-10-09T23:16:16.009Z,2.70
2022-10-09T23:19:20.702Z,2.97
2022-10-09T23:22:23.434Z,2.60
2022-10-09T23:25:26.673Z,2.73
2022-10-09T23:28:29.421Z,2.57
2022-10-09T23:31:32.757Z,2.70
2022-10-09T23:34:37.282Z,2.40
2022-10-09T23:37:40.014Z,2.40
2022-10-09T23:40:42.952Z,2.40
2022-10-09T23:43:47.620Z,2.30
2022-10-09T23:46:50.855Z,2.87
2022-10-09T23:49:54.966Z,2.83
2022-10-09T23:52:57.993Z,2.50
2022-10-09T23:56:00.696Z,2.57
2022-10-09T23:59:06.373Z,2.27
